createdAt,value
2018-07-28T00:00:29.382Z,0.00
2018-07-28T00:01:29.376Z,0.00
2018-07-28T00:02:29.435Z,0.00
2018-07-28T00:03:29.332Z,0.00
2018-07-28T00:04:29.438Z,0.00
2018-07-28T00:05:29.324Z,0.00
2018-07-28T00:06:29.316Z,0.00
2018-07-28T00:07:29.417Z,0.00
2018-07-28T00:08:29.281Z,0.00
2018-07-28T00:09:29.342Z,0.00
2018-07-28T00:10:29.257Z,0.00
2018-07-28T00:11:29.280Z,0.00
2018-07-28T00:12:29.282Z,0.00
2018-07-28T00:13:29.261Z,0.00
2018-07-28T00:14:29.356Z,0.00
2018-07-28T00:15:29.226Z,0.00
2018-07-28T00:16:29.316Z,0.00
2018-07-28T00:17:29.324Z,0.00
2018-07-28T00:18:29.186Z,0.00
2018-07-28T00:19:29.291Z,0.00
2018-07-28T00:20:29.265Z,0.00
2018-07-28T00:21:29.156Z,0.00
2018-07-28T00:22:29.281Z,0.00
2018-07-28T00:23:29.141Z,0.00
2018-07-28T00:24:29.171Z,0.00
2018-07-28T00:25:29.213Z,0.00
2018-07-28T00:26:29.092Z,0.00
2018-07-28T00:27:29.103Z,0.00
2018-07-28T00:28:29.085Z,0.00
2018-07-28T00:29:29.076Z,0.00
2018-07-28T00:30:29.054Z,0.00
2018-07-28T00:31:29.063Z,0.00
2018-07-28T00:32:29.042Z,0.00
2018-07-28T00:33:29.023Z,0.00
2018-07-28T00:34:29.028Z,0.00
2018-07-28T00:35:28.998Z,0.00
2018-07-28T00:36:28.999Z,0.00
2018-07-28T00:37:29.027Z,0.00
2018-07-28T00:38:28.991Z,0.00
2018-07-28T00:39:29.089Z,0.00
2018-07-28T00:40:29.033Z,0.00
2018-07-28T00:41:28.943Z,0.00
2018-07-28T00:42:28.954Z,0.00
2018-07-28T00:43:29.069Z,0.00
2018-07-28T00:44:28.924Z,0.00
2018-07-28T00:45:28.897Z,0.00
2018-07-28T00:46:28.981Z,0.00
2018-07-28T00:47:28.891Z,0.00
2018-07-28T00:48:28.899Z,0.00
2018-07-28T00:49:28.874Z,0.00
2018-07-28T00:50:28.861Z,0.00
2018-07-28T00:51:28.834Z,0.00
2018-07-28T00:52:28.851Z,0.00
2018-07-28T00:53:28.854Z,0.00
2018-07-28T00:54:28.822Z,0.00
2018-07-28T00:55:28.794Z,0.00
2018-07-28T00:56:28.801Z,0.00
2018-07-28T00:57:28.791Z,0.00
2018-07-28T00:58:28.769Z,0.00
2018-07-28T00:59:28.788Z,0.00
2018-07-28T01:00:28.758Z,0.00
2018-07-28T01:01:29.123Z,0.00
2018-07-28T01:02:28.750Z,0.00
2018-07-28T01:03:28.721Z,0.00
2018-07-28T01:04:28.711Z,0.00
2018-07-28T01:05:28.694Z,0.00
2018-07-28T01:06:28.699Z,0.00
2018-07-28T01:07:28.754Z,0.00
2018-07-28T01:08:28.748Z,0.00
2018-07-28T01:09:28.663Z,0.00
2018-07-28T01:10:28.647Z,0.00
2018-07-28T01:11:28.634Z,0.00
2018-07-28T01:12:28.756Z,0.00
2018-07-28T01:13:28.629Z,0.00
2018-07-28T01:14:28.628Z,0.00
2018-07-28T01:15:28.604Z,0.00
2018-07-28T01:16:28.598Z,0.00
2018-07-28T01:17:28.592Z,0.00
2018-07-28T01:18:28.561Z,0.00
2018-07-28T01:19:28.678Z,0.00
2018-07-28T01:20:28.573Z,0.00
2018-07-28T01:21:30.767Z,0.00
2018-07-28T01:22:28.533Z,0.00
2018-07-28T01:23:28.516Z,0.00
2018-07-28T01:24:28.495Z,0.00
2018-07-28T01:25:28.493Z,0.00
2018-07-28T01:26:28.493Z,0.00
2018-07-28T01:27:28.476Z,0.00
2018-07-28T01:28:28.470Z,0.00
2018-07-28T01:29:28.518Z,0.00
2018-07-28T01:30:28.587Z,0.00
2018-07-28T01:31:28.563Z,0.00
2018-07-28T01:32:28.436Z,0.00
2018-07-28T01:33:28.419Z,0.00
2018-07-28T01:34:28.488Z,0.00
2018-07-28T01:35:28.384Z,0.00
2018-07-28T01:36:28.402Z,0.00
2018-07-28T01:37:28.384Z,0.00
2018-07-28T01:38:28.374Z,0.00
2018-07-28T01:39:28.372Z,0.00
2018-07-28T01:40:28.328Z,0.00
2018-07-28T01:41:28.327Z,0.00
2018-07-28T01:42:28.312Z,0.00
2018-07-28T01:43:28.461Z,0.00
2018-07-28T01:44:28.365Z,0.00
2018-07-28T01:45:28.301Z,0.00
2018-07-28T01:46:28.294Z,0.00
2018-07-28T01:47:28.303Z,0.00
2018-07-28T01:48:28.358Z,0.00
2018-07-28T01:49:28.322Z,0.00
2018-07-28T01:50:28.235Z,0.00
2018-07-28T01:51:28.243Z,0.00
2018-07-28T01:52:28.217Z,0.00
2018-07-28T01:53:28.213Z,0.00
2018-07-28T01:54:28.303Z,0.00
2018-07-28T01:55:28.291Z,0.00
2018-07-28T01:56:28.173Z,0.00
2018-07-28T01:57:28.165Z,0.00
2018-07-28T01:58:28.167Z,0.00
2018-07-28T01:59:28.250Z,0.00
2018-07-28T02:00:28.172Z,0.00
2018-07-28T02:01:28.123Z,0.00
2018-07-28T02:02:28.130Z,0.00
2018-07-28T02:03:28.121Z,0.00
2018-07-28T02:04:28.095Z,0.00
2018-07-28T02:05:28.067Z,0.00
2018-07-28T02:06:28.064Z,0.00
2018-07-28T02:07:28.076Z,0.00
2018-07-28T02:08:28.058Z,0.00
2018-07-28T02:09:28.151Z,0.00
2018-07-28T02:10:28.021Z,0.00
2018-07-28T02:11:28.041Z,0.00
2018-07-28T02:12:28.006Z,0.00
2018-07-28T02:13:28.029Z,0.00
2018-07-28T02:14:28.041Z,0.00
2018-07-28T02:15:27.982Z,0.00
2018-07-28T02:16:27.961Z,0.00
2018-07-28T02:17:27.961Z,0.00
2018-07-28T02:18:28.076Z,0.00
2018-07-28T02:19:27.924Z,0.00
2018-07-28T02:20:27.923Z,0.00
2018-07-28T02:21:28.020Z,0.00
2018-07-28T02:22:28.007Z,0.00
2018-07-28T02:23:27.911Z,0.00
2018-07-28T02:24:27.975Z,0.00
2018-07-28T02:25:27.871Z,0.00
2018-07-28T02:26:27.853Z,0.00
2018-07-28T02:27:27.851Z,0.00
2018-07-28T02:28:27.878Z,0.00
2018-07-28T02:29:27.899Z,0.00
2018-07-28T02:30:27.818Z,0.00
2018-07-28T02:31:27.822Z,0.00
2018-07-28T02:32:27.862Z,0.00
2018-07-28T02:33:27.918Z,0.00
2018-07-28T02:34:27.770Z,0.00
2018-07-28T02:35:27.864Z,0.00
2018-07-28T02:36:27.783Z,0.00
2018-07-28T02:37:27.801Z,0.00
2018-07-28T02:38:27.776Z,0.00
2018-07-28T02:39:27.865Z,0.00
2018-07-28T02:40:28.084Z,0.00
2018-07-28T02:41:27.706Z,0.00
2018-07-28T02:42:27.821Z,0.00
2018-07-28T02:43:27.699Z,0.00
2018-07-28T02:44:27.787Z,0.00
2018-07-28T02:45:27.704Z,0.00
2018-07-28T02:46:27.662Z,0.00
2018-07-28T02:47:27.682Z,0.00
2018-07-28T02:48:27.646Z,0.00
2018-07-28T02:49:27.698Z,0.00
2018-07-28T02:50:27.609Z,0.00
2018-07-28T02:51:27.598Z,0.00
2018-07-28T02:52:27.604Z,0.00
2018-07-28T02:53:27.612Z,0.00
2018-07-28T02:54:27.708Z,0.00
2018-07-28T02:55:27.562Z,0.00
2018-07-28T02:56:27.560Z,0.00
2018-07-28T02:57:27.531Z,0.00
2018-07-28T02:58:27.540Z,0.00
2018-07-28T02:59:27.613Z,0.00
2018-07-28T03:00:27.501Z,0.00
2018-07-28T03:01:27.487Z,0.00
2018-07-28T03:02:27.475Z,0.00
2018-07-28T03:03:27.503Z,0.00
2018-07-28T03:04:27.491Z,0.00
2018-07-28T03:05:27.567Z,0.00
2018-07-28T03:06:27.490Z,0.00
2018-07-28T03:07:27.539Z,0.00
2018-07-28T03:08:27.431Z,0.00
2018-07-28T03:09:27.414Z,0.00
2018-07-28T03:10:27.418Z,0.00
2018-07-28T03:11:27.392Z,0.00
2018-07-28T03:12:27.420Z,0.00
2018-07-28T03:13:27.378Z,0.00
2018-07-28T03:14:27.371Z,0.00
2018-07-28T03:15:27.432Z,0.00
2018-07-28T03:16:27.361Z,0.00
2018-07-28T03:17:27.326Z,0.00
2018-07-28T03:18:27.347Z,0.00
2018-07-28T03:19:27.354Z,0.00
2018-07-28T03:20:27.320Z,0.00
2018-07-28T03:21:27.301Z,0.00
2018-07-28T03:22:27.313Z,0.00
2018-07-28T03:23:27.278Z,0.00
2018-07-28T03:24:27.311Z,0.00
2018-07-28T03:25:27.247Z,0.00
2018-07-28T03:26:27.237Z,0.00
2018-07-28T03:27:27.583Z,0.00
2018-07-28T03:28:27.353Z,0.00
2018-07-28T03:29:27.206Z,0.00
2018-07-28T03:30:27.787Z,0.00
2018-07-28T03:31:27.342Z,0.00
2018-07-28T03:32:27.193Z,0.00
2018-07-28T03:33:27.162Z,0.00
2018-07-28T03:34:27.189Z,0.00
2018-07-28T03:35:27.132Z,0.00
2018-07-28T03:36:27.146Z,0.00
2018-07-28T03:37:27.131Z,0.00
2018-07-28T03:38:27.106Z,0.00
2018-07-28T03:39:27.165Z,0.00
2018-07-28T03:40:27.098Z,0.00
2018-07-28T03:41:27.089Z,0.00
2018-07-28T03:42:27.117Z,0.00
2018-07-28T03:43:27.051Z,0.00
2018-07-28T03:44:27.075Z,0.00
2018-07-28T03:45:27.057Z,0.00
2018-07-28T03:46:27.028Z,0.00
2018-07-28T03:47:27.021Z,0.00
2018-07-28T03:48:26.995Z,0.00
2018-07-28T03:49:26.997Z,0.00
2018-07-28T03:50:27.303Z,0.00
2018-07-28T03:51:26.982Z,0.00
2018-07-28T03:52:27.100Z,0.00
2018-07-28T03:53:26.954Z,0.00
2018-07-28T03:54:26.963Z,0.00
2018-07-28T03:55:27.060Z,0.00
2018-07-28T03:56:27.079Z,0.00
2018-07-28T03:57:27.032Z,0.00
2018-07-28T03:58:26.958Z,0.00
2018-07-28T03:59:27.024Z,0.00
2018-07-28T04:00:27.056Z,0.00
2018-07-28T04:01:27.013Z,0.00
2018-07-28T04:02:26.893Z,0.00
2018-07-28T04:03:26.854Z,0.00
2018-07-28T04:04:26.953Z,0.00
2018-07-28T04:05:26.836Z,0.00
2018-07-28T04:06:26.934Z,0.00
2018-07-28T04:07:26.803Z,0.00
2018-07-28T04:08:26.787Z,0.00
2018-07-28T04:09:26.807Z,0.00
2018-07-28T04:10:27.469Z,0.00
2018-07-28T04:11:26.752Z,0.00
2018-07-28T04:12:26.773Z,0.00
2018-07-28T04:13:26.730Z,0.00
2018-07-28T04:14:26.836Z,0.00
2018-07-28T04:15:26.914Z,0.00
2018-07-28T04:16:26.786Z,0.00
2018-07-28T04:17:26.709Z,0.00
2018-07-28T04:18:26.693Z,0.00
2018-07-28T04:19:26.704Z,0.00
2018-07-28T04:20:26.669Z,0.00
2018-07-28T04:21:26.652Z,0.00
2018-07-28T04:22:26.653Z,0.00
2018-07-28T04:23:26.767Z,0.00
2018-07-28T04:24:26.629Z,0.00
2018-07-28T04:25:26.613Z,0.00
2018-07-28T04:26:26.626Z,0.00
2018-07-28T04:27:26.670Z,0.00
2018-07-28T04:28:26.657Z,0.00
2018-07-28T04:29:26.605Z,0.00
2018-07-28T04:30:26.580Z,0.00
2018-07-28T04:31:26.542Z,0.00
2018-07-28T04:32:27.175Z,0.00
2018-07-28T04:33:26.541Z,0.00
2018-07-28T04:34:26.552Z,0.00
2018-07-28T04:35:26.531Z,0.00
2018-07-28T04:36:26.506Z,0.00
2018-07-28T04:37:26.492Z,0.00
2018-07-28T04:38:26.488Z,0.00
2018-07-28T04:39:26.491Z,0.00
2018-07-28T04:40:26.471Z,0.00
2018-07-28T04:41:26.440Z,0.00
2018-07-28T04:42:26.433Z,0.00
2018-07-28T04:43:26.459Z,0.00
2018-07-28T04:44:26.428Z,0.00
2018-07-28T04:45:26.429Z,0.00
2018-07-28T04:46:26.410Z,0.00
2018-07-28T04:47:26.458Z,5.62
2018-07-28T04:48:26.387Z,5.62
2018-07-28T04:49:26.520Z,5.62
2018-07-28T04:50:26.360Z,5.62
2018-07-28T04:51:26.364Z,5.62
2018-07-28T04:52:26.335Z,5.62
2018-07-28T04:53:26.341Z,0.00
2018-07-28T04:54:26.358Z,0.00
2018-07-28T04:55:26.353Z,0.00
2018-07-28T04:56:26.297Z,0.00
2018-07-28T04:57:26.286Z,0.00
2018-07-28T04:58:26.281Z,0.00
2018-07-28T04:59:26.278Z,0.00
2018-07-28T05:00:26.245Z,0.00
2018-07-28T05:01:26.297Z,0.00
2018-07-28T05:02:26.241Z,0.00
2018-07-28T05:03:26.253Z,0.00
2018-07-28T05:04:26.242Z,0.00
2018-07-28T05:05:26.221Z,0.00
2018-07-28T05:06:26.188Z,0.00
2018-07-28T05:07:26.250Z,0.00
2018-07-28T05:08:26.160Z,0.00
2018-07-28T05:09:26.165Z,0.00
2018-07-28T05:10:26.167Z,0.00
2018-07-28T05:11:26.158Z,0.00
2018-07-28T05:12:26.120Z,0.00
2018-07-28T05:13:26.122Z,0.00
2018-07-28T05:14:26.115Z,0.00
2018-07-28T05:15:26.180Z,0.00
2018-07-28T05:16:26.089Z,0.00
2018-07-28T05:17:26.204Z,0.00
2018-07-28T05:18:26.075Z,0.00
2018-07-28T05:19:26.198Z,0.00
2018-07-28T05:20:26.052Z,0.00
2018-07-28T05:21:26.044Z,0.00
2018-07-28T05:22:26.021Z,0.00
2018-07-28T05:23:26.016Z,0.00
2018-07-28T05:24:26.064Z,0.00
2018-07-28T05:25:26.010Z,0.00
2018-07-28T05:26:25.983Z,0.00
2018-07-28T05:27:25.961Z,0.00
2018-07-28T05:28:25.982Z,0.00
2018-07-28T05:29:25.956Z,0.00
2018-07-28T05:30:26.080Z,0.00
2018-07-28T05:31:25.938Z,0.00
2018-07-28T05:32:25.940Z,0.00
2018-07-28T05:33:25.900Z,0.00
2018-07-28T05:34:25.902Z,0.00
2018-07-28T05:35:25.910Z,0.00
2018-07-28T05:36:25.899Z,0.00
2018-07-28T05:37:25.949Z,0.00
2018-07-28T05:38:25.860Z,0.00
2018-07-28T05:39:25.857Z,0.00
2018-07-28T05:40:25.978Z,0.00
2018-07-28T05:41:25.985Z,0.00
2018-07-28T05:42:25.868Z,0.00
2018-07-28T05:43:25.798Z,0.00
2018-07-28T05:44:25.811Z,0.00
2018-07-28T05:45:25.785Z,0.00
2018-07-28T05:46:25.819Z,0.00
2018-07-28T05:47:25.866Z,0.00
2018-07-28T05:48:25.763Z,0.00
2018-07-28T05:49:25.755Z,0.00
2018-07-28T05:50:25.735Z,0.00
2018-07-28T05:51:25.714Z,0.00
2018-07-28T05:52:25.714Z,0.00
2018-07-28T05:53:25.700Z,0.00
2018-07-28T05:54:25.690Z,0.00
2018-07-28T05:55:25.689Z,0.00
2018-07-28T05:56:25.734Z,0.00
2018-07-28T05:57:25.702Z,0.00
2018-07-28T05:58:25.658Z,0.00
2018-07-28T05:59:25.782Z,5.62
2018-07-28T06:00:25.694Z,5.62
2018-07-28T06:01:25.603Z,5.62
2018-07-28T06:02:25.720Z,5.62
2018-07-28T06:03:25.704Z,5.62
2018-07-28T06:04:25.578Z,5.62
2018-07-28T06:05:25.577Z,5.62
2018-07-28T06:06:25.569Z,5.62
2018-07-28T06:07:25.564Z,5.62
2018-07-28T06:08:25.647Z,5.62
2018-07-28T06:09:25.566Z,5.62
2018-07-28T06:10:25.535Z,5.62
2018-07-28T06:11:25.617Z,5.62
2018-07-28T06:12:25.506Z,5.62
2018-07-28T06:13:25.483Z,5.62
2018-07-28T06:14:25.472Z,5.62
2018-07-28T06:15:25.479Z,0.00
2018-07-28T06:16:25.467Z,0.00
2018-07-28T06:17:25.466Z,0.00
2018-07-28T06:18:25.443Z,0.00
2018-07-28T06:19:25.419Z,0.00
2018-07-28T06:20:25.619Z,0.00
2018-07-28T06:21:25.500Z,0.00
2018-07-28T06:22:25.396Z,0.00
2018-07-28T06:23:25.385Z,0.00
2018-07-28T06:24:25.400Z,0.00
2018-07-28T06:25:25.444Z,0.00
2018-07-28T06:26:25.348Z,0.00
2018-07-28T06:27:25.342Z,0.00
2018-07-28T06:28:25.442Z,5.62
2018-07-28T06:29:25.332Z,5.62
2018-07-28T06:30:25.329Z,5.62
2018-07-28T06:31:25.314Z,5.62
2018-07-28T06:32:25.291Z,5.62
2018-07-28T06:33:25.284Z,5.62
2018-07-28T06:34:25.280Z,5.62
2018-07-28T06:35:25.399Z,5.62
2018-07-28T06:36:25.283Z,5.62
2018-07-28T06:37:25.234Z,5.62
2018-07-28T06:38:25.218Z,5.62
2018-07-28T06:39:25.245Z,5.62
2018-07-28T06:40:25.214Z,5.62
2018-07-28T06:41:25.218Z,5.62
2018-07-28T06:42:25.200Z,5.62
2018-07-28T06:43:25.185Z,5.62
2018-07-28T06:44:26.922Z,5.62
2018-07-28T06:45:25.226Z,5.62
2018-07-28T06:46:25.175Z,5.62
2018-07-28T06:47:25.263Z,5.62
2018-07-28T06:48:25.126Z,5.62
2018-07-28T06:49:25.131Z,5.62
2018-07-28T06:50:25.099Z,5.62
2018-07-28T06:51:25.085Z,5.62
2018-07-28T06:52:25.071Z,5.62
2018-07-28T06:53:25.069Z,5.62
2018-07-28T06:54:25.111Z,5.62
2018-07-28T06:55:25.175Z,5.62
2018-07-28T06:56:25.051Z,5.62
2018-07-28T06:57:25.739Z,5.62
2018-07-28T06:58:25.038Z,5.62
2018-07-28T06:59:25.009Z,11.25
2018-07-28T07:00:24.991Z,11.25
2018-07-28T07:01:25.013Z,11.25
2018-07-28T07:02:25.044Z,11.25
2018-07-28T07:03:24.972Z,11.25
2018-07-28T07:04:24.960Z,11.25
2018-07-28T07:05:25.028Z,16.88
2018-07-28T07:06:24.993Z,11.25
2018-07-28T07:07:25.009Z,11.25
2018-07-28T07:08:25.037Z,11.25
2018-07-28T07:09:24.902Z,11.25
2018-07-28T07:10:24.886Z,11.25
2018-07-28T07:11:24.893Z,11.25
2018-07-28T07:12:24.957Z,16.88
2018-07-28T07:13:24.875Z,16.88
2018-07-28T07:14:24.841Z,16.88
2018-07-28T07:15:24.848Z,16.88
2018-07-28T07:16:24.953Z,16.88
2018-07-28T07:17:24.841Z,16.88
2018-07-28T07:18:24.826Z,16.88
2018-07-28T07:19:24.814Z,16.88
2018-07-28T07:20:24.785Z,16.88
2018-07-28T07:21:24.798Z,16.88
2018-07-28T07:22:24.764Z,11.25
2018-07-28T07:23:24.864Z,16.88
2018-07-28T07:24:24.741Z,16.88
2018-07-28T07:25:24.743Z,16.88
2018-07-28T07:26:24.869Z,16.88
2018-07-28T07:27:24.710Z,16.88
2018-07-28T07:28:24.695Z,11.25
2018-07-28T07:29:24.808Z,11.25
2018-07-28T07:30:24.761Z,11.25
2018-07-28T07:31:24.707Z,11.25
2018-07-28T07:32:24.788Z,11.25
2018-07-28T07:33:24.799Z,11.25
2018-07-28T07:34:24.750Z,11.25
2018-07-28T07:35:24.710Z,11.25
2018-07-28T07:36:24.611Z,5.62
2018-07-28T07:37:24.719Z,5.62
2018-07-28T07:38:24.589Z,5.62
2018-07-28T07:39:24.696Z,5.62
2018-07-28T07:40:24.567Z,5.62
2018-07-28T07:41:24.648Z,5.62
2018-07-28T07:42:24.552Z,5.62
2018-07-28T07:43:24.553Z,5.62
2018-07-28T07:44:24.631Z,5.62
2018-07-28T07:45:24.584Z,5.62
2018-07-28T07:46:24.548Z,5.62
2018-07-28T07:47:24.610Z,5.62
2018-07-28T07:48:24.511Z,5.62
2018-07-28T07:49:24.503Z,5.62
2018-07-28T07:50:24.574Z,5.62
2018-07-28T07:51:24.464Z,5.62
2018-07-28T07:52:24.451Z,5.62
2018-07-28T07:53:24.532Z,5.62
2018-07-28T07:54:24.461Z,5.62
2018-07-28T07:55:24.561Z,11.25
2018-07-28T07:56:24.459Z,11.25
2018-07-28T07:57:24.409Z,11.25
2018-07-28T07:58:24.487Z,11.25
2018-07-28T07:59:24.366Z,11.25
2018-07-28T08:00:24.369Z,11.25
2018-07-28T08:01:24.353Z,11.25
2018-07-28T08:02:24.471Z,11.25
2018-07-28T08:03:24.347Z,16.88
2018-07-28T08:04:24.327Z,16.88
2018-07-28T08:05:24.352Z,16.88
2018-07-28T08:06:24.345Z,16.88
2018-07-28T08:07:24.449Z,16.88
2018-07-28T08:08:24.276Z,16.88
2018-07-28T08:09:24.407Z,16.88
2018-07-28T08:10:24.361Z,16.88
2018-07-28T08:11:24.256Z,16.88
2018-07-28T08:12:24.248Z,16.88
2018-07-28T08:13:24.230Z,16.88
2018-07-28T08:14:24.337Z,16.88
2018-07-28T08:15:24.323Z,16.88
2018-07-28T08:16:24.308Z,16.88
2018-07-28T08:17:24.346Z,16.88
2018-07-28T08:18:24.187Z,16.88
2018-07-28T08:19:24.289Z,16.88
2018-07-28T08:20:24.149Z,16.88
2018-07-28T08:21:24.185Z,16.88
2018-07-28T08:22:24.258Z,16.88
2018-07-28T08:23:24.240Z,16.88
2018-07-28T08:24:24.117Z,16.88
2018-07-28T08:25:24.132Z,16.88
2018-07-28T08:26:24.089Z,16.88
2018-07-28T08:27:24.138Z,16.88
2018-07-28T08:28:24.090Z,11.25
2018-07-28T08:29:24.228Z,11.25
2018-07-28T08:30:24.072Z,11.25
2018-07-28T08:31:25.722Z,16.88
2018-07-28T08:32:24.076Z,16.88
2018-07-28T08:33:24.066Z,16.88
2018-07-28T08:34:24.125Z,16.88
2018-07-28T08:35:24.104Z,16.88
2018-07-28T08:36:24.056Z,16.88
2018-07-28T08:37:23.964Z,16.88
2018-07-28T08:38:24.016Z,11.25
2018-07-28T08:39:24.094Z,11.25
2018-07-28T08:40:23.937Z,11.25
2018-07-28T08:41:23.941Z,11.25
2018-07-28T08:42:23.924Z,11.25
2018-07-28T08:43:24.051Z,11.25
2018-07-28T08:44:23.949Z,11.25
2018-07-28T08:45:23.894Z,11.25
2018-07-28T08:46:23.874Z,11.25
2018-07-28T08:47:23.865Z,11.25
2018-07-28T08:48:23.877Z,11.25
2018-07-28T08:49:24.005Z,16.88
2018-07-28T08:50:23.832Z,16.88
2018-07-28T08:51:23.839Z,16.88
2018-07-28T08:52:23.827Z,16.88
2018-07-28T08:53:23.841Z,22.50
2018-07-28T08:54:23.860Z,22.50
2018-07-28T08:55:23.916Z,22.50
2018-07-28T08:56:23.801Z,22.50
2018-07-28T08:57:23.807Z,22.50
2018-07-28T08:58:23.767Z,22.50
2018-07-28T08:59:23.760Z,16.88
2018-07-28T09:00:23.732Z,16.88
2018-07-28T09:01:23.895Z,16.88
2018-07-28T09:02:23.712Z,22.50
2018-07-28T09:03:23.733Z,22.50
2018-07-28T09:04:23.701Z,22.50
2018-07-28T09:05:23.812Z,22.50
2018-07-28T09:06:23.716Z,22.50
2018-07-28T09:07:23.660Z,22.50
2018-07-28T09:08:23.683Z,22.50
2018-07-28T09:09:23.647Z,22.50
2018-07-28T09:10:23.640Z,22.50
2018-07-28T09:11:23.679Z,22.50
2018-07-28T09:12:23.674Z,22.50
2018-07-28T09:13:23.621Z,22.50
2018-07-28T09:14:23.645Z,22.50
2018-07-28T09:15:23.705Z,16.88
2018-07-28T09:16:23.704Z,16.88
2018-07-28T09:17:23.567Z,16.88
2018-07-28T09:18:23.556Z,16.88
2018-07-28T09:19:23.572Z,16.88
2018-07-28T09:20:23.535Z,16.88
2018-07-28T09:21:23.535Z,16.88
2018-07-28T09:22:23.514Z,16.88
2018-07-28T09:23:23.556Z,16.88
2018-07-28T09:24:23.501Z,16.88
2018-07-28T09:25:23.613Z,22.50
2018-07-28T09:26:23.462Z,22.50
2018-07-28T09:27:23.586Z,22.50
2018-07-28T09:28:23.454Z,22.50
2018-07-28T09:29:23.565Z,22.50
2018-07-28T09:30:23.433Z,22.50
2018-07-28T09:31:23.502Z,22.50
2018-07-28T09:32:23.395Z,22.50
2018-07-28T09:33:23.416Z,22.50
2018-07-28T09:34:23.410Z,22.50
2018-07-28T09:35:23.378Z,22.50
2018-07-28T09:36:23.389Z,22.50
2018-07-28T09:37:23.358Z,22.50
2018-07-28T09:38:23.335Z,22.50
2018-07-28T09:39:23.349Z,22.50
2018-07-28T09:40:23.319Z,22.50
2018-07-28T09:41:23.390Z,22.50
2018-07-28T09:42:23.433Z,22.50
2018-07-28T09:43:23.291Z,22.50
2018-07-28T09:44:23.313Z,22.50
2018-07-28T09:45:23.264Z,22.50
2018-07-28T09:46:23.311Z,28.12
2018-07-28T09:47:23.365Z,28.12
2018-07-28T09:48:23.247Z,28.12
2018-07-28T09:49:23.270Z,28.12
2018-07-28T09:50:23.310Z,28.12
2018-07-28T09:51:23.222Z,28.12
2018-07-28T09:52:23.205Z,28.12
2018-07-28T09:53:23.260Z,28.12
2018-07-28T09:54:23.191Z,28.12
2018-07-28T09:55:23.315Z,28.12
2018-07-28T09:56:23.155Z,28.12
2018-07-28T09:57:23.144Z,28.12
2018-07-28T09:58:23.131Z,22.50
2018-07-28T09:59:23.157Z,28.12
2018-07-28T10:00:23.211Z,22.50
2018-07-28T10:01:23.118Z,28.12
2018-07-28T10:02:23.087Z,28.12
2018-07-28T10:03:23.088Z,28.12
2018-07-28T10:04:23.082Z,28.12
2018-07-28T10:05:23.209Z,28.12
2018-07-28T10:06:23.081Z,28.12
2018-07-28T10:07:23.063Z,28.12
2018-07-28T10:08:23.021Z,22.50
2018-07-28T10:09:23.104Z,22.50
2018-07-28T10:10:23.110Z,22.50
2018-07-28T10:11:23.037Z,22.50
2018-07-28T10:12:23.019Z,22.50
2018-07-28T10:13:22.982Z,22.50
2018-07-28T10:14:22.972Z,22.50
2018-07-28T10:15:22.964Z,22.50
2018-07-28T10:16:22.969Z,22.50
2018-07-28T10:17:23.050Z,22.50
2018-07-28T10:18:22.919Z,22.50
2018-07-28T10:19:22.932Z,16.88
2018-07-28T10:20:22.971Z,22.50
2018-07-28T10:21:22.890Z,22.50
2018-07-28T10:22:22.957Z,22.50
2018-07-28T10:23:22.888Z,22.50
2018-07-28T10:24:22.988Z,22.50
2018-07-28T10:25:22.974Z,22.50
2018-07-28T10:26:22.848Z,22.50
2018-07-28T10:27:22.944Z,22.50
2018-07-28T10:28:22.812Z,22.50
2018-07-28T10:29:22.893Z,22.50
2018-07-28T10:30:22.872Z,22.50
2018-07-28T10:31:22.929Z,16.88
2018-07-28T10:32:22.813Z,11.25
2018-07-28T10:33:22.768Z,16.88
2018-07-28T10:34:22.791Z,16.88
2018-07-28T10:35:22.830Z,16.88
2018-07-28T10:36:22.861Z,16.88
2018-07-28T10:37:22.858Z,16.88
2018-07-28T10:38:22.857Z,16.88
2018-07-28T10:39:22.831Z,16.88
2018-07-28T10:40:22.703Z,22.50
2018-07-28T10:41:22.684Z,22.50
2018-07-28T10:42:22.713Z,22.50
2018-07-28T10:43:22.675Z,22.50
2018-07-28T10:44:22.807Z,22.50
2018-07-28T10:45:22.721Z,22.50
2018-07-28T10:46:22.635Z,28.12
2018-07-28T10:47:22.741Z,28.12
2018-07-28T10:48:22.617Z,28.12
2018-07-28T10:49:22.790Z,28.12
2018-07-28T10:50:22.608Z,33.75
2018-07-28T10:51:22.605Z,33.75
2018-07-28T10:52:22.583Z,28.12
2018-07-28T10:53:22.725Z,28.12
2018-07-28T10:54:22.707Z,28.12
2018-07-28T10:55:22.555Z,33.75
2018-07-28T10:56:22.542Z,33.75
2018-07-28T10:57:22.520Z,33.75
2018-07-28T10:58:23.302Z,33.75
2018-07-28T10:59:22.528Z,33.75
2018-07-28T11:00:22.657Z,33.75
2018-07-28T11:01:22.597Z,33.75
2018-07-28T11:02:22.589Z,28.12
2018-07-28T11:03:22.454Z,28.12
2018-07-28T11:04:22.461Z,22.50
2018-07-28T11:05:22.593Z,16.88
2018-07-28T11:06:22.451Z,16.88
2018-07-28T11:07:22.525Z,16.88
2018-07-28T11:08:22.415Z,16.88
2018-07-28T11:09:22.541Z,11.25
2018-07-28T11:10:22.398Z,11.25
2018-07-28T11:11:22.372Z,5.62
2018-07-28T11:12:22.377Z,5.62
2018-07-28T11:13:22.873Z,5.62
2018-07-28T11:14:22.449Z,5.62
2018-07-28T11:15:22.355Z,5.62
2018-07-28T11:16:22.318Z,5.62
2018-07-28T11:17:22.331Z,5.62
2018-07-28T11:18:22.335Z,5.62
2018-07-28T11:19:22.350Z,5.62
2018-07-28T11:20:22.296Z,5.62
2018-07-28T11:21:22.277Z,5.62
2018-07-28T11:22:22.260Z,5.62
2018-07-28T11:23:22.268Z,5.62
2018-07-28T11:24:22.267Z,5.62
2018-07-28T11:25:22.248Z,5.62
2018-07-28T11:26:22.260Z,5.62
2018-07-28T11:27:22.206Z,5.62
2018-07-28T11:28:22.198Z,11.25
2018-07-28T11:29:22.203Z,11.25
2018-07-28T11:30:22.220Z,11.25
2018-07-28T11:31:22.170Z,16.88
2018-07-28T11:32:22.165Z,16.88
2018-07-28T11:33:22.160Z,16.88
2018-07-28T11:34:22.148Z,16.88
2018-07-28T11:35:22.137Z,11.25
2018-07-28T11:36:22.246Z,11.25
2018-07-28T11:37:22.107Z,11.25
2018-07-28T11:38:22.109Z,11.25
2018-07-28T11:39:22.126Z,11.25
2018-07-28T11:40:22.103Z,11.25
2018-07-28T11:41:22.132Z,11.25
2018-07-28T11:42:22.130Z,11.25
2018-07-28T11:43:22.048Z,11.25
2018-07-28T11:44:22.033Z,11.25
2018-07-28T11:45:22.100Z,11.25
2018-07-28T11:46:22.109Z,11.25
2018-07-28T11:47:22.021Z,11.25
2018-07-28T11:48:22.129Z,11.25
2018-07-28T11:49:22.000Z,16.88
2018-07-28T11:50:21.987Z,16.88
2018-07-28T11:51:22.122Z,16.88
2018-07-28T11:52:22.011Z,16.88
2018-07-28T11:53:21.971Z,22.50
2018-07-28T11:54:22.068Z,22.50
2018-07-28T11:55:21.940Z,22.50
2018-07-28T11:56:22.040Z,22.50
2018-07-28T11:57:21.947Z,28.12
2018-07-28T11:58:22.047Z,28.12
2018-07-28T11:59:21.890Z,28.12
2018-07-28T12:00:21.880Z,33.75
2018-07-28T12:01:21.873Z,33.75
2018-07-28T12:02:21.862Z,33.75
2018-07-28T12:03:22.027Z,33.75
2018-07-28T12:04:21.886Z,33.75
2018-07-28T12:05:21.997Z,33.75
2018-07-28T12:06:21.810Z,33.75
2018-07-28T12:07:21.931Z,33.75
2018-07-28T12:08:21.793Z,33.75
2018-07-28T12:09:21.905Z,33.75
2018-07-28T12:10:21.782Z,33.75
2018-07-28T12:11:21.781Z,33.75
2018-07-28T12:12:21.755Z,39.38
2018-07-28T12:13:21.845Z,39.38
2018-07-28T12:14:21.718Z,33.75
2018-07-28T12:15:21.834Z,28.12
2018-07-28T12:16:21.715Z,28.12
2018-07-28T12:17:21.830Z,22.50
2018-07-28T12:18:21.789Z,22.50
2018-07-28T12:19:21.691Z,28.12
2018-07-28T12:20:21.690Z,22.50
2018-07-28T12:21:21.649Z,28.12
2018-07-28T12:22:21.680Z,28.12
2018-07-28T12:23:21.650Z,22.50
2018-07-28T12:24:21.630Z,22.50
2018-07-28T12:25:21.629Z,28.12
2018-07-28T12:26:21.614Z,28.12
2018-07-28T12:27:21.671Z,22.50
2018-07-28T12:28:21.717Z,22.50
2018-07-28T12:29:21.564Z,22.50
2018-07-28T12:30:21.594Z,28.12
2018-07-28T12:31:21.590Z,28.12
2018-07-28T12:32:21.562Z,33.75
2018-07-28T12:33:21.549Z,28.12
2018-07-28T12:34:21.649Z,22.50
2018-07-28T12:35:21.549Z,16.88
2018-07-28T12:36:21.596Z,16.88
2018-07-28T12:37:21.593Z,11.25
2018-07-28T12:38:21.483Z,11.25
2018-07-28T12:39:21.462Z,5.62
2018-07-28T12:40:21.485Z,5.62
2018-07-28T12:41:21.543Z,5.62
2018-07-28T12:42:21.547Z,5.62
2018-07-28T12:43:21.488Z,5.62
2018-07-28T12:44:21.413Z,5.62
2018-07-28T12:45:21.419Z,5.62
2018-07-28T12:46:21.397Z,5.62
2018-07-28T12:47:21.383Z,5.62
2018-07-28T12:48:21.382Z,0.00
2018-07-28T12:49:21.665Z,0.00
2018-07-28T12:50:21.482Z,0.00
2018-07-28T12:51:21.341Z,0.00
2018-07-28T12:52:21.431Z,0.00
2018-07-28T12:53:21.325Z,0.00
2018-07-28T12:54:21.321Z,0.00
2018-07-28T12:55:21.426Z,0.00
2018-07-28T12:56:21.411Z,0.00
2018-07-28T12:57:21.277Z,0.00
2018-07-28T12:58:21.319Z,5.62
2018-07-28T12:59:21.255Z,5.62
2018-07-28T13:00:21.270Z,5.62
2018-07-28T13:01:21.254Z,5.62
2018-07-28T13:02:21.351Z,11.25
2018-07-28T13:03:21.220Z,11.25
2018-07-28T13:04:21.510Z,16.88
2018-07-28T13:05:21.305Z,33.75
2018-07-28T13:06:21.197Z,50.62
2018-07-28T13:07:21.171Z,50.62
2018-07-28T13:08:21.190Z,50.62